AAL2367 KDEN-KSLC
Flight info
| Callsign | AAL2367 |
|---|---|
| Flight time | 1h 6m |
| Altitude | 38000 |
| Route | ZIMMR4 CHNGY EKR PITTT2 |
| Aircraft | B772/H-SDE2E3FGHIJ5LORVWXY/LB1D1 |
Departure
| Time | 2026-05-07 03:50 |
|---|---|
| Airport | Denver International Airport (KDEN) |
Arrival
| Time | 2026-05-07 04:56 |
|---|---|
| Airport | Salt Lake City International Airport (KSLC) |
| Time | Latitude | Longitude | Altitude | Speed | Heading |
|---|---|---|---|---|---|
| 2026-05-07 02:18 | 39.85943 | -104.67081 | 5420 ft | 0 kts | 180° |
| 2026-05-07 03:34 | 39.85944 | -104.67081 | 5420 ft | 1 kts | 180° |
| 2026-05-07 03:34 | 39.85952 | -104.67082 | 5420 ft | 1 kts | 180° |
| 2026-05-07 03:35 | 39.85967 | -104.67082 | 5420 ft | 2 kts | 163° |
| 2026-05-07 03:35 | 39.85981 | -104.67091 | 5419 ft | 2 kts | 146° |
| 2026-05-07 03:35 | 39.85992 | -104.67103 | 5418 ft | 2 kts | 130° |
| 2026-05-07 03:35 | 39.86001 | -104.67119 | 5418 ft | 2 kts | 113° |
| 2026-05-07 03:36 | 39.86005 | -104.67137 | 5417 ft | 2 kts | 96° |
| 2026-05-07 03:36 | 39.86006 | -104.67147 | 5416 ft | 1 kts | 89° |
| 2026-05-07 03:36 | 39.86006 | -104.67150 | 5416 ft | 0 kts | 90° |
| 2026-05-07 03:42 | 39.86006 | -104.67142 | 5416 ft | 3 kts | 89° |
| 2026-05-07 03:43 | 39.86007 | -104.67083 | 5419 ft | 9 kts | 86° |
| 2026-05-07 03:43 | 39.86012 | -104.66978 | 5423 ft | 13 kts | 75° |
| 2026-05-07 03:43 | 39.86051 | -104.66894 | 5424 ft | 8 kts | 64° |
| 2026-05-07 03:43 | 39.86060 | -104.66841 | 5426 ft | 4 kts | 87° |
| 2026-05-07 03:44 | 39.86060 | -104.66778 | 5428 ft | 13 kts | 89° |
| 2026-05-07 03:44 | 39.86057 | -104.66617 | 5430 ft | 18 kts | 100° |
| 2026-05-07 03:44 | 39.86025 | -104.66509 | 5431 ft | 9 kts | 105° |
| 2026-05-07 03:44 | 39.86019 | -104.66415 | 5432 ft | 12 kts | 91° |
| 2026-05-07 03:45 | 39.86019 | -104.66296 | 5431 ft | 13 kts | 83° |
| 2026-05-07 03:45 | 39.86085 | -104.66230 | 5428 ft | 12 kts | 359° |
| 2026-05-07 03:45 | 39.86181 | -104.66232 | 5426 ft | 15 kts | 0° |
| 2026-05-07 03:45 | 39.86301 | -104.66231 | 5423 ft | 18 kts | 0° |
| 2026-05-07 03:46 | 39.86436 | -104.66227 | 5418 ft | 19 kts | 5° |
| 2026-05-07 03:46 | 39.86501 | -104.66122 | 5415 ft | 15 kts | 89° |
| 2026-05-07 03:46 | 39.86499 | -104.65985 | 5412 ft | 14 kts | 90° |
| 2026-05-07 03:46 | 39.86498 | -104.65852 | 5407 ft | 15 kts | 90° |
| 2026-05-07 03:47 | 39.86497 | -104.65711 | 5401 ft | 15 kts | 91° |
| 2026-05-07 03:47 | 39.86496 | -104.65584 | 5396 ft | 14 kts | 90° |
| 2026-05-07 03:47 | 39.86494 | -104.65447 | 5390 ft | 15 kts | 90° |
| 2026-05-07 03:47 | 39.86494 | -104.65299 | 5384 ft | 16 kts | 89° |
| 2026-05-07 03:48 | 39.86493 | -104.65141 | 5378 ft | 18 kts | 92° |
| 2026-05-07 03:48 | 39.86492 | -104.64957 | 5368 ft | 22 kts | 89° |
| 2026-05-07 03:48 | 39.86491 | -104.64745 | 5357 ft | 24 kts | 92° |
| 2026-05-07 03:48 | 39.86488 | -104.64511 | 5344 ft | 26 kts | 91° |
| 2026-05-07 03:49 | 39.86483 | -104.64369 | 5338 ft | 10 kts | 92° |
| 2026-05-07 03:49 | 39.86482 | -104.64256 | 5332 ft | 15 kts | 89° |
| 2026-05-07 03:49 | 39.86449 | -104.64138 | 5325 ft | 9 kts | 155° |
| 2026-05-07 03:49 | 39.86261 | -104.64137 | 5324 ft | 73 kts | 182° |
| 2026-05-07 03:50 | 39.85411 | -104.64136 | 5353 ft | 166 kts | 178° |
| 2026-05-07 03:50 | 39.84106 | -104.64128 | 6055 ft | 197 kts | 179° |
| 2026-05-07 03:50 | 39.82860 | -104.64356 | 7514 ft | 180 kts | 198° |
| 2026-05-07 03:50 | 39.81768 | -104.65150 | 8070 ft | 190 kts | 221° |
| 2026-05-07 03:51 | 39.80951 | -104.66614 | 8417 ft | 210 kts | 249° |
| 2026-05-07 03:51 | 39.80755 | -104.68550 | 8752 ft | 228 kts | 277° |
| 2026-05-07 03:51 | 39.81388 | -104.70498 | 9123 ft | 249 kts | 304° |
| 2026-05-07 03:51 | 39.82445 | -104.72349 | 9769 ft | 260 kts | 307° |
| 2026-05-07 03:52 | 39.83550 | -104.74229 | 9982 ft | 264 kts | 307° |
| 2026-05-07 03:52 | 39.84668 | -104.76124 | 9993 ft | 267 kts | 307° |
| 2026-05-07 03:52 | 39.85805 | -104.78045 | 9993 ft | 267 kts | 308° |
| 2026-05-07 03:52 | 39.86945 | -104.79971 | 9992 ft | 268 kts | 308° |
| 2026-05-07 03:53 | 39.88085 | -104.81894 | 9997 ft | 269 kts | 308° |
| 2026-05-07 03:53 | 39.89284 | -104.83910 | 10248 ft | 293 kts | 308° |
| 2026-05-07 03:53 | 39.90540 | -104.86021 | 11144 ft | 297 kts | 309° |
| 2026-05-07 03:53 | 39.91801 | -104.88135 | 12135 ft | 299 kts | 310° |
| 2026-05-07 03:54 | 39.92852 | -104.90492 | 13124 ft | 309 kts | 292° |
| 2026-05-07 03:54 | 39.93234 | -104.93232 | 14138 ft | 318 kts | 281° |
| 2026-05-07 03:54 | 39.93354 | -104.96140 | 15077 ft | 326 kts | 277° |
| 2026-05-07 03:54 | 39.93416 | -104.99065 | 16011 ft | 331 kts | 277° |
| 2026-05-07 03:55 | 39.93480 | -105.02127 | 16723 ft | 344 kts | 277° |
| 2026-05-07 03:55 | 39.93549 | -105.05280 | 17250 ft | 360 kts | 277° |
| 2026-05-07 03:55 | 39.93622 | -105.08579 | 17857 ft | 373 kts | 277° |
| 2026-05-07 03:55 | 39.93695 | -105.12009 | 18617 ft | 381 kts | 276° |
| 2026-05-07 03:56 | 39.93767 | -105.15450 | 19528 ft | 384 kts | 277° |
| 2026-05-07 03:56 | 39.93840 | -105.18938 | 20408 ft | 388 kts | 277° |
| 2026-05-07 03:56 | 39.93914 | -105.22447 | 21152 ft | 395 kts | 277° |
| 2026-05-07 03:56 | 39.94118 | -105.26005 | 21875 ft | 398 kts | 281° |
| 2026-05-07 03:57 | 39.94421 | -105.29565 | 22666 ft | 402 kts | 282° |
| 2026-05-07 03:57 | 39.94723 | -105.33169 | 23437 ft | 406 kts | 281° |
| 2026-05-07 03:57 | 39.95026 | -105.36867 | 24143 ft | 412 kts | 281° |
| 2026-05-07 03:57 | 39.95324 | -105.40569 | 24867 ft | 416 kts | 282° |
| 2026-05-07 03:58 | 39.95623 | -105.44302 | 25630 ft | 419 kts | 282° |
| 2026-05-07 03:58 | 39.95924 | -105.48086 | 26345 ft | 423 kts | 281° |
| 2026-05-07 03:58 | 39.96223 | -105.51873 | 26993 ft | 427 kts | 282° |
| 2026-05-07 03:58 | 39.96527 | -105.55768 | 27621 ft | 432 kts | 281° |
| 2026-05-07 03:59 | 39.96827 | -105.59653 | 28288 ft | 436 kts | 281° |
| 2026-05-07 03:59 | 39.97130 | -105.63622 | 28650 ft | 446 kts | 281° |
| 2026-05-07 03:59 | 39.97431 | -105.67675 | 29020 ft | 456 kts | 279° |
| 2026-05-07 03:59 | 39.97650 | -105.71840 | 29563 ft | 462 kts | 279° |
| 2026-05-07 04:00 | 39.97849 | -105.75999 | 30217 ft | 464 kts | 278° |
| 2026-05-07 04:00 | 39.98050 | -105.80185 | 30864 ft | 466 kts | 278° |
| 2026-05-07 04:00 | 39.98254 | -105.84418 | 31396 ft | 471 kts | 279° |
| 2026-05-07 04:00 | 39.98463 | -105.88691 | 31631 ft | 482 kts | 279° |
| 2026-05-07 04:01 | 39.98674 | -105.93050 | 32041 ft | 488 kts | 278° |
| 2026-05-07 04:01 | 39.98886 | -105.97469 | 32632 ft | 489 kts | 279° |
| 2026-05-07 04:01 | 39.99095 | -106.01873 | 33374 ft | 486 kts | 279° |
| 2026-05-07 04:01 | 39.99303 | -106.06247 | 34172 ft | 482 kts | 279° |
| 2026-05-07 04:02 | 39.99509 | -106.10614 | 34864 ft | 479 kts | 279° |
| 2026-05-07 04:02 | 39.99713 | -106.14928 | 35487 ft | 476 kts | 279° |
| 2026-05-07 04:02 | 39.99914 | -106.19210 | 36100 ft | 473 kts | 279° |
| 2026-05-07 04:02 | 40.00116 | -106.23541 | 36339 ft | 472 kts | 278° |
| 2026-05-07 04:03 | 40.00316 | -106.27842 | 36782 ft | 473 kts | 278° |
| 2026-05-07 04:03 | 40.00514 | -106.32119 | 37185 ft | 474 kts | 278° |
| 2026-05-07 04:03 | 40.00710 | -106.36433 | 37647 ft | 473 kts | 278° |
| 2026-05-07 04:03 | 40.00904 | -106.40710 | 38124 ft | 471 kts | 278° |
| 2026-05-07 04:04 | 40.01097 | -106.45019 | 38333 ft | 473 kts | 278° |
| 2026-05-07 04:04 | 40.01474 | -106.53544 | 38329 ft | 469 kts | 278° |
| 2026-05-07 04:05 | 40.01845 | -106.62099 | 38334 ft | 471 kts | 278° |
| 2026-05-07 04:05 | 40.02208 | -106.70610 | 38312 ft | 469 kts | 277° |
| 2026-05-07 04:06 | 40.02564 | -106.79098 | 38297 ft | 468 kts | 277° |
| 2026-05-07 04:06 | 40.02914 | -106.87613 | 38293 ft | 468 kts | 277° |
| 2026-05-07 04:07 | 40.03256 | -106.96088 | 38287 ft | 468 kts | 277° |
| 2026-05-07 04:07 | 40.03591 | -107.04548 | 38285 ft | 468 kts | 277° |
| 2026-05-07 04:08 | 40.03922 | -107.13041 | 38280 ft | 467 kts | 277° |
| 2026-05-07 04:08 | 40.04245 | -107.21481 | 38279 ft | 469 kts | 277° |
| 2026-05-07 04:09 | 40.04562 | -107.29972 | 38265 ft | 468 kts | 277° |
| 2026-05-07 04:09 | 40.04874 | -107.38446 | 38274 ft | 469 kts | 277° |
| 2026-05-07 04:10 | 40.05179 | -107.46925 | 38266 ft | 470 kts | 277° |
| 2026-05-07 04:10 | 40.05479 | -107.55448 | 38254 ft | 469 kts | 277° |
| 2026-05-07 04:11 | 40.05775 | -107.63998 | 38385 ft | 470 kts | 277° |
| 2026-05-07 04:11 | 40.06063 | -107.72523 | 38254 ft | 468 kts | 276° |
| 2026-05-07 04:12 | 40.06343 | -107.80998 | 38234 ft | 470 kts | 276° |
| 2026-05-07 04:12 | 40.06618 | -107.89507 | 38228 ft | 469 kts | 276° |
| 2026-05-07 04:13 | 40.06942 | -107.97954 | 38214 ft | 468 kts | 277° |
| 2026-05-07 04:13 | 40.07341 | -108.06435 | 38214 ft | 470 kts | 277° |
| 2026-05-07 04:14 | 40.07731 | -108.14963 | 38211 ft | 469 kts | 277° |
| 2026-05-07 04:14 | 40.08111 | -108.23465 | 38221 ft | 470 kts | 277° |
| 2026-05-07 04:15 | 40.08482 | -108.31944 | 38222 ft | 468 kts | 277° |
| 2026-05-07 04:15 | 40.08844 | -108.40377 | 38203 ft | 468 kts | 277° |
| 2026-05-07 04:16 | 40.09202 | -108.48880 | 38191 ft | 465 kts | 277° |
| 2026-05-07 04:16 | 40.09374 | -108.53059 | 37904 ft | 454 kts | 277° |
| 2026-05-07 04:16 | 40.09544 | -108.57189 | 36670 ft | 459 kts | 278° |
| 2026-05-07 04:16 | 40.09716 | -108.61362 | 35181 ft | 472 kts | 278° |
| 2026-05-07 04:17 | 40.09892 | -108.65652 | 33732 ft | 483 kts | 278° |
| 2026-05-07 04:17 | 40.10066 | -108.70009 | 32648 ft | 481 kts | 278° |
| 2026-05-07 04:17 | 40.10236 | -108.74356 | 32248 ft | 478 kts | 278° |
| 2026-05-07 04:18 | 40.10577 | -108.83128 | 32222 ft | 488 kts | 278° |
| 2026-05-07 04:18 | 40.10912 | -108.91935 | 32223 ft | 485 kts | 278° |
| 2026-05-07 04:19 | 40.11240 | -109.00700 | 32224 ft | 485 kts | 277° |
| 2026-05-07 04:19 | 40.11563 | -109.09488 | 32225 ft | 485 kts | 278° |
| 2026-05-07 04:20 | 40.11882 | -109.18331 | 32225 ft | 485 kts | 278° |
| 2026-05-07 04:20 | 40.12192 | -109.27125 | 32226 ft | 486 kts | 278° |
| 2026-05-07 04:21 | 40.12647 | -109.40359 | 32227 ft | 486 kts | 278° |
| 2026-05-07 04:21 | 40.12941 | -109.49175 | 32228 ft | 485 kts | 278° |
| 2026-05-07 04:22 | 40.13228 | -109.57938 | 32232 ft | 486 kts | 278° |
| 2026-05-07 04:22 | 40.13509 | -109.66740 | 32233 ft | 485 kts | 277° |
| 2026-05-07 04:23 | 40.13784 | -109.75561 | 32232 ft | 486 kts | 277° |
| 2026-05-07 04:23 | 40.14051 | -109.84347 | 32232 ft | 487 kts | 277° |
| 2026-05-07 04:24 | 40.14313 | -109.93175 | 32235 ft | 487 kts | 277° |
| 2026-05-07 04:24 | 40.14566 | -110.01951 | 32241 ft | 484 kts | 277° |
| 2026-05-07 04:25 | 40.14816 | -110.10809 | 32231 ft | 487 kts | 277° |
| 2026-05-07 04:25 | 40.14881 | -110.19704 | 32248 ft | 488 kts | 274° |
| 2026-05-07 04:26 | 40.14782 | -110.28532 | 32252 ft | 488 kts | 275° |
| 2026-05-07 04:26 | 40.14688 | -110.37399 | 32242 ft | 486 kts | 275° |
| 2026-05-07 04:27 | 40.14639 | -110.41721 | 32249 ft | 465 kts | 275° |
| 2026-05-07 04:27 | 40.14593 | -110.45805 | 32260 ft | 444 kts | 275° |
| 2026-05-07 04:27 | 40.14514 | -110.53756 | 32276 ft | 439 kts | 275° |
| 2026-05-07 04:28 | 40.14431 | -110.61718 | 32272 ft | 437 kts | 275° |
| 2026-05-07 04:28 | 40.14341 | -110.69624 | 32209 ft | 433 kts | 275° |
| 2026-05-07 04:29 | 40.14292 | -110.73543 | 31656 ft | 428 kts | 275° |
| 2026-05-07 04:29 | 40.14246 | -110.77434 | 30521 ft | 435 kts | 275° |
| 2026-05-07 04:29 | 40.14199 | -110.81360 | 29207 ft | 446 kts | 274° |
| 2026-05-07 04:29 | 40.14147 | -110.85449 | 27962 ft | 452 kts | 274° |
| 2026-05-07 04:30 | 40.14091 | -110.89529 | 26937 ft | 453 kts | 274° |
| 2026-05-07 04:30 | 40.14032 | -110.93594 | 26303 ft | 444 kts | 274° |
| 2026-05-07 04:30 | 40.13972 | -110.97593 | 25755 ft | 433 kts | 274° |
| 2026-05-07 04:30 | 40.13914 | -111.01496 | 25056 ft | 427 kts | 274° |
| 2026-05-07 04:31 | 40.13858 | -111.05318 | 24234 ft | 425 kts | 274° |
| 2026-05-07 04:31 | 40.13801 | -111.09120 | 23422 ft | 422 kts | 274° |
| 2026-05-07 04:31 | 40.13743 | -111.12940 | 22658 ft | 417 kts | 273° |
| 2026-05-07 04:31 | 40.13684 | -111.16674 | 21940 ft | 412 kts | 273° |
| 2026-05-07 04:32 | 40.13624 | -111.20390 | 21184 ft | 408 kts | 274° |
| 2026-05-07 04:32 | 40.13564 | -111.24082 | 20399 ft | 405 kts | 273° |
| 2026-05-07 04:32 | 40.13504 | -111.27728 | 19660 ft | 401 kts | 273° |
| 2026-05-07 04:32 | 40.13443 | -111.31325 | 19215 ft | 396 kts | 273° |
| 2026-05-07 04:33 | 40.13381 | -111.34936 | 19133 ft | 399 kts | 273° |
| 2026-05-07 04:33 | 40.13317 | -111.38564 | 19126 ft | 400 kts | 273° |
| 2026-05-07 04:33 | 40.13252 | -111.42175 | 19111 ft | 400 kts | 273° |
| 2026-05-07 04:33 | 40.13186 | -111.45760 | 19107 ft | 399 kts | 273° |
| 2026-05-07 04:34 | 40.13117 | -111.49419 | 19108 ft | 400 kts | 273° |
| 2026-05-07 04:34 | 40.13203 | -111.52979 | 19069 ft | 396 kts | 281° |
| 2026-05-07 04:34 | 40.13758 | -111.56472 | 19053 ft | 389 kts | 291° |
| 2026-05-07 04:34 | 40.14765 | -111.59745 | 19050 ft | 386 kts | 299° |
| 2026-05-07 04:35 | 40.15931 | -111.62878 | 19059 ft | 386 kts | 300° |
| 2026-05-07 04:35 | 40.17107 | -111.66022 | 19055 ft | 386 kts | 299° |
| 2026-05-07 04:35 | 40.18276 | -111.69160 | 19058 ft | 386 kts | 299° |
| 2026-05-07 04:35 | 40.19452 | -111.72334 | 19045 ft | 385 kts | 300° |
| 2026-05-07 04:36 | 40.20789 | -111.75328 | 19036 ft | 383 kts | 304° |
| 2026-05-07 04:36 | 40.21999 | -111.78436 | 19052 ft | 385 kts | 298° |
| 2026-05-07 04:36 | 40.23112 | -111.81612 | 19047 ft | 386 kts | 298° |
| 2026-05-07 04:36 | 40.24226 | -111.84804 | 19042 ft | 385 kts | 298° |
| 2026-05-07 04:37 | 40.25319 | -111.87938 | 18701 ft | 374 kts | 298° |
| 2026-05-07 04:37 | 40.26428 | -111.90959 | 17866 ft | 371 kts | 303° |
| 2026-05-07 04:37 | 40.27931 | -111.93638 | 17213 ft | 360 kts | 315° |
| 2026-05-07 04:37 | 40.29781 | -111.95676 | 17061 ft | 339 kts | 327° |
| 2026-05-07 04:38 | 40.31799 | -111.97291 | 17065 ft | 337 kts | 330° |
| 2026-05-07 04:38 | 40.33814 | -111.98841 | 16826 ft | 340 kts | 330° |
| 2026-05-07 04:38 | 40.35858 | -112.00397 | 16136 ft | 340 kts | 330° |
| 2026-05-07 04:38 | 40.37883 | -112.01930 | 15683 ft | 332 kts | 330° |
| 2026-05-07 04:39 | 40.39868 | -112.03432 | 15369 ft | 328 kts | 330° |
| 2026-05-07 04:39 | 40.41916 | -112.04692 | 15060 ft | 328 kts | 341° |
| 2026-05-07 04:39 | 40.44167 | -112.05301 | 14757 ft | 326 kts | 352° |
| 2026-05-07 04:39 | 40.46413 | -112.05609 | 14452 ft | 325 kts | 353° |
| 2026-05-07 04:40 | 40.48658 | -112.05894 | 14172 ft | 325 kts | 353° |
| 2026-05-07 04:40 | 40.50894 | -112.06184 | 13873 ft | 324 kts | 352° |
| 2026-05-07 04:40 | 40.53156 | -112.06481 | 13576 ft | 322 kts | 353° |
| 2026-05-07 04:40 | 40.55382 | -112.06776 | 13247 ft | 322 kts | 352° |
| 2026-05-07 04:41 | 40.57585 | -112.07070 | 12959 ft | 321 kts | 352° |
| 2026-05-07 04:41 | 40.59819 | -112.07368 | 12662 ft | 320 kts | 352° |
| 2026-05-07 04:41 | 40.62022 | -112.07662 | 12356 ft | 319 kts | 352° |
| 2026-05-07 04:41 | 40.64250 | -112.07955 | 12065 ft | 317 kts | 353° |
| 2026-05-07 04:42 | 40.66137 | -112.08174 | 11976 ft | 318 kts | 353° |
| 2026-05-07 04:42 | 40.68224 | -112.08411 | 11907 ft | 319 kts | 353° |
| 2026-05-07 04:42 | 40.70340 | -112.08654 | 11805 ft | 319 kts | 353° |
| 2026-05-07 04:42 | 40.72567 | -112.08912 | 11687 ft | 318 kts | 353° |
| 2026-05-07 04:43 | 40.74773 | -112.09168 | 11577 ft | 319 kts | 353° |
| 2026-05-07 04:43 | 40.77000 | -112.09430 | 11464 ft | 318 kts | 353° |
| 2026-05-07 04:43 | 40.79043 | -112.09673 | 11359 ft | 319 kts | 353° |
| 2026-05-07 04:43 | 40.81245 | -112.09934 | 11246 ft | 319 kts | 353° |
| 2026-05-07 04:44 | 40.83437 | -112.10194 | 11130 ft | 317 kts | 353° |
| 2026-05-07 04:44 | 40.85657 | -112.10461 | 11106 ft | 318 kts | 352° |
| 2026-05-07 04:44 | 40.87828 | -112.10723 | 11037 ft | 312 kts | 352° |
| 2026-05-07 04:44 | 40.89996 | -112.10985 | 10519 ft | 312 kts | 352° |
| 2026-05-07 04:45 | 40.92145 | -112.11244 | 9880 ft | 315 kts | 352° |
| 2026-05-07 04:45 | 40.94324 | -112.11507 | 9324 ft | 315 kts | 352° |
| 2026-05-07 04:45 | 40.96507 | -112.11770 | 9032 ft | 306 kts | 352° |
| 2026-05-07 04:45 | 40.98552 | -112.12013 | 9002 ft | 286 kts | 352° |
| 2026-05-07 04:46 | 41.00491 | -112.12244 | 8866 ft | 274 kts | 352° |
| 2026-05-07 04:46 | 41.02388 | -112.12475 | 8528 ft | 272 kts | 352° |
| 2026-05-07 04:46 | 41.04279 | -112.12704 | 8120 ft | 273 kts | 352° |
| 2026-05-07 04:46 | 41.06128 | -112.12928 | 8013 ft | 267 kts | 352° |
| 2026-05-07 04:47 | 41.07968 | -112.13150 | 7995 ft | 258 kts | 353° |
| 2026-05-07 04:47 | 41.09724 | -112.12882 | 7968 ft | 257 kts | 18° |
| 2026-05-07 04:47 | 41.11151 | -112.11587 | 7950 ft | 249 kts | 47° |
| 2026-05-07 04:47 | 41.11919 | -112.09543 | 7954 ft | 249 kts | 75° |
| 2026-05-07 04:48 | 41.12197 | -112.07295 | 7982 ft | 248 kts | 80° |
| 2026-05-07 04:48 | 41.12427 | -112.05075 | 7985 ft | 238 kts | 80° |
| 2026-05-07 04:48 | 41.12648 | -112.02912 | 7988 ft | 234 kts | 80° |
| 2026-05-07 04:48 | 41.12699 | -112.00762 | 7973 ft | 234 kts | 101° |
| 2026-05-07 04:49 | 41.11994 | -111.98872 | 7958 ft | 233 kts | 133° |
| 2026-05-07 04:49 | 41.10644 | -111.97729 | 7980 ft | 229 kts | 163° |
| 2026-05-07 04:49 | 41.09091 | -111.97669 | 7954 ft | 226 kts | 194° |
| 2026-05-07 04:49 | 41.07606 | -111.98352 | 7984 ft | 225 kts | 201° |
| 2026-05-07 04:50 | 41.06128 | -111.99088 | 7995 ft | 225 kts | 201° |
| 2026-05-07 04:50 | 41.04675 | -111.99806 | 7989 ft | 219 kts | 201° |
| 2026-05-07 04:50 | 41.03251 | -112.00404 | 8008 ft | 210 kts | 187° |
| 2026-05-07 04:50 | 41.01819 | -112.00253 | 8000 ft | 207 kts | 172° |
| 2026-05-07 04:51 | 41.00442 | -111.99976 | 7977 ft | 193 kts | 173° |
| 2026-05-07 04:51 | 40.99096 | -111.99780 | 7737 ft | 192 kts | 175° |
| 2026-05-07 04:51 | 40.97780 | -111.99632 | 7500 ft | 190 kts | 175° |
| 2026-05-07 04:51 | 40.96471 | -111.99494 | 7252 ft | 181 kts | 175° |
| 2026-05-07 04:52 | 40.95252 | -111.99365 | 7028 ft | 171 kts | 174° |
| 2026-05-07 04:52 | 40.94095 | -111.99236 | 6816 ft | 165 kts | 174° |
| 2026-05-07 04:52 | 40.92960 | -111.99106 | 6606 ft | 161 kts | 173° |
| 2026-05-07 04:52 | 40.91857 | -111.98978 | 6398 ft | 156 kts | 173° |
| 2026-05-07 04:53 | 40.90806 | -111.98857 | 6200 ft | 146 kts | 173° |
| 2026-05-07 04:53 | 40.89825 | -111.98744 | 6022 ft | 141 kts | 173° |
| 2026-05-07 04:53 | 40.88856 | -111.98634 | 5842 ft | 138 kts | 173° |
| 2026-05-07 04:53 | 40.87918 | -111.98524 | 5658 ft | 132 kts | 172° |
| 2026-05-07 04:54 | 40.87016 | -111.98416 | 5487 ft | 128 kts | 172° |
| 2026-05-07 04:54 | 40.86139 | -111.98315 | 5316 ft | 126 kts | 172° |
| 2026-05-07 04:54 | 40.85259 | -111.98196 | 5106 ft | 126 kts | 171° |
| 2026-05-07 04:54 | 40.84402 | -111.98083 | 4923 ft | 124 kts | 173° |
| 2026-05-07 04:55 | 40.83530 | -111.97992 | 4780 ft | 125 kts | 174° |
| 2026-05-07 04:55 | 40.82672 | -111.97906 | 4638 ft | 124 kts | 172° |
| 2026-05-07 04:55 | 40.81794 | -111.97784 | 4453 ft | 126 kts | 174° |
| 2026-05-07 04:55 | 40.80937 | -111.97715 | 4306 ft | 124 kts | 171° |
| 2026-05-07 04:56 | 40.80096 | -111.97606 | 4240 ft | 111 kts | 177° |
| 2026-05-07 04:56 | 40.79450 | -111.97541 | 4234 ft | 49 kts | 176° |
| 2026-05-07 04:56 | 40.79186 | -111.97559 | 4234 ft | 33 kts | 196° |
| 2026-05-07 04:56 | 40.79006 | -111.97659 | 4234 ft | 21 kts | 204° |
| 2026-05-07 04:57 | 40.78890 | -111.97702 | 4234 ft | 14 kts | 181° |
| 2026-05-07 04:57 | 40.78848 | -111.97704 | 4234 ft | 2 kts | 185° |
| 2026-05-07 04:57 | 40.78840 | -111.97704 | 4234 ft | 0 kts | 182° |
| 2026-05-07 04:58 | 40.78805 | -111.97706 | 4234 ft | 11 kts | 187° |
| 2026-05-07 04:58 | 40.78753 | -111.97794 | 4234 ft | 11 kts | 261° |
| 2026-05-07 04:58 | 40.78745 | -111.97884 | 4234 ft | 9 kts | 265° |
| 2026-05-07 04:58 | 40.78714 | -111.97952 | 4235 ft | 8 kts | 188° |
| 2026-05-07 04:59 | 40.78675 | -111.97948 | 4236 ft | 1 kts | 173° |
| 2026-05-07 04:59 | 40.78673 | -111.97948 | 4236 ft | 0 kts | 175° |